Texas Valley, New York
Current Conditions -  °F | °C
As of 1:55 AM on Sunday 26 Oct 2014 (Local Time) from KN03 Reporting Station
Broken Clouds Broken Clouds  
Wind Chill: 42°   Ceiling: 5500
Heat Index: 45°   Visibility: 10mi
Dew Point: 45°   Wind: 5mph
Humidity: 100%   Direction: 240°WSW
Pressure: 29.61"   Gusts: NA
Location:  42.4596°N, 76.0658°W
Report Text: KN03 260555Z AUTO 24004KT 10SM SCT033 SCT042 BKN055 07/07 A2961 RMK AO2
Loading
Personal Weather Stations






























Interactive Weather Map
Tropical Storm Tracking
New forecast layout! Learn more

10-Day Weather Forecast

Advertisements
Track Severe Weather on mobile